Saturday, August 18, 2018, 3:48 PM EDT
Back to Local

KAFN, Jaffrey Muni-silver Ranch

Location: Jaffrey, NH, United States Lat: 42.8
Local Time: 3:48 PM EDT (19:48 GMT) Lon: -72
Time Zone: US/Eastern Elev: 1040 ft

Show me the last for .
Show Decoded

2018-08-18 14:52 METAR KAFN 181852Z AUTO VRB04KT 10SM SCT090 24/20 A2983 RMK AO2 LTG DSNT S
                 SLP099 T02390200 =
2018-08-18 14:32 METAR KAFN 181832Z AUTO 33004KT 10SM SCT021 24/21 A2983 RMK AO2 T02390206 =
2018-08-18 13:52 METAR KAFN 181752Z AUTO 33003KT 10SM FEW018 BKN029 24/20 A2984 RMK AO2 SLP102
                 60043 T02440200 10261 20217 58005 =
2018-08-18 12:52 METAR KAFN 181652Z AUTO 00000KT 10SM SCT011 BKN020 BKN070 23/22 A2984 RMK AO2
                 RAE02B38E52 SLP104 P0000 T02330222 =
2018-08-18 12:11 METAR KAFN 181611Z AUTO 33004KT 10SM FEW009 BKN075 22/21 A2985 RMK AO2 RAE02
                 P0000 T02220211 =
2018-08-18 11:52 METAR KAFN 181552Z AUTO VRB03KT 3SM RA BR FEW029 BKN070 OVC080 22/21 A2985 RMK
                 AO2 RAB20 SLP107 P0043 T02170211 =
2018-08-18 11:44 METAR KAFN 181544Z AUTO VRB05KT 2 1/2SM RA BR BKN025 BKN048 OVC065 22/22 A2985
                 RMK AO2 RAB20 P0041 T02220217 =
2018-08-18 11:39 METAR KAFN 181539Z AUTO 34005KT 4SM -RA BR SCT021 BKN030 OVC060 22/22 A2986 RMK
                 AO2 RAB20 P0039 T02220217 =
2018-08-18 11:36 METAR KAFN 181536Z AUTO 33004KT 2 1/2SM -RA BR FEW006 BKN024 OVC030 22/22 A2985
                 RMK AO2 RAB20 P0038 T02220217 =
2018-08-18 11:34 METAR KAFN 181534Z AUTO 34003KT 1SM -RA BR FEW006 BKN023 OVC030 22/22 A2985 RMK
                 AO2 RAB20 P0038 T02220217 =
2018-08-18 11:27 METAR KAFN 181527Z AUTO VRB03KT 1/4SM +RA FG SCT013 BKN018 OVC030 22/21 A2985
                 RMK AO2 RAB20 P0037 T02220211 =
2018-08-18 11:20 METAR KAFN 181520Z AUTO 33008KT 310V010 1SM -RA FEW011 SCT018 OVC025 24/21 A2985
                 RMK AO2 RAB20 P0016 T02440211 =
2018-08-18 10:52 METAR KAFN 181452Z AUTO VRB03KT 10SM SCT015 BKN023 25/22 A2984 RMK AO2 SLP102
                 60000 T02500222 56002 =
2018-08-18 10:48 METAR KAFN 181448Z AUTO 20004KT 10SM SCT015 BKN023 25/22 A2984 RMK AO2 =
2018-08-18 10:03 METAR KAFN 181403Z AUTO VRB05KT 10SM FEW009 24/22 A2985 RMK AO2 T02440222 =
2018-08-18 09:52 METAR KAFN 181352Z AUTO VRB04KT 10SM FEW010 24/22 A2985 RMK AO2 SLP105 T02390222
                 =
2018-08-18 08:52 METAR KAFN 181252Z AUTO 21005KT 10SM FEW006 SCT080 SCT095 23/22 A2985 RMK AO2
                 RAB25E40 SLP105 P0000 T02280222 =
2018-08-18 07:52 METAR KAFN 181152Z AUTO 21006KT 10SM SCT008 BKN038 OVC120 22/22 A2985 RMK AO2
                 SLP107 60000 70104 T02220217 10222 20222 58001 =
2018-08-18 07:37 METAR KAFN 181137Z AUTO 21005KT 10SM SCT007 BKN033 BKN120 22/22 A2985 RMK AO2
                 T02220217 =
2018-08-18 06:52 METAR KAFN 181052Z AUTO 22008KT 10SM OVC006 22/22 A2986 RMK AO2 RAB16E37 CIG
                 005V010 SLP108 P0000 T02220217 =
2018-08-18 06:39 METAR KAFN 181039Z AUTO 21008KT 10SM OVC006 22/22 A2986 RMK AO2 RAB16E37 CIG
                 004V010 P0000 T02220217 =
2018-08-18 06:23 METAR KAFN 181023Z AUTO 21007KT 10SM -RA OVC005 22/22 A2986 RMK AO2 RAB16 CIG
                 004V009 P0000 T02220217 =
2018-08-18 05:52 METAR KAFN 180952Z AUTO 20006KT 10SM OVC006 22/22 A2986 RMK AO2 CIG 004V009
                 SLP107 T02220217 =
2018-08-18 04:52 METAR KAFN 180852Z AUTO 21008KT 10SM BKN006 OVC010 22/22 A2986 RMK AO2 CIG
                 004V009 SLP108 60000 T02220217 56010 =
2018-08-18 04:44 METAR KAFN 180844Z AUTO 22007KT 10SM OVC006 22/22 A2986 RMK AO2 CIG 004V010
                 T02220217 =
2018-08-18 03:52 METAR KAFN 180752Z AUTO VRB05KT 10SM OVC005 22/22 A2986 RMK AO2 SLP110 T02220217
                 =
2018-08-18 02:52 METAR KAFN 180652Z AUTO 22005G14KT 10SM OVC007 22/22 A2988 RMK AO2 RAE19 CIG
                 005V012 SLP116 P0000 T02220217 =
2018-08-18 01:52 METAR KAFN 180552Z AUTO 22005KT 9SM -RA BKN006 BKN120 22/22 A2989 RMK AO2 SLP118
                 P0003 60040 T02220217 10239 20222 58025 =
2018-08-18 00:52 METAR KAFN 180452Z AUTO 21006KT 4SM RA BR BKN008 BKN055 OVC070 23/22 A2991 RMK
                 AO2 SLP126 P0015 T02280222 402890172 =
2018-08-17 23:52 METAR KAFN 180352Z AUTO 20009KT 6SM -RA BR FEW008 SCT037 BKN100 22/22 A2995 RMK
                 AO2 LTG DSNT S AND SW SLP138 P0006 T02220217 =
2018-08-17 23:27 METAR KAFN 180327Z AUTO 20007G18KT 5SM RA BR SCT012 BKN049 OVC120 23/22 A2993
                 RMK AO2 LTG DSNT S P0003 T02280217 =
2018-08-17 23:18 METAR KAFN 180318Z AUTO 20012G18KT 7SM -RA SCT010 BKN017 BKN037 23/22 A2993 RMK
                 AO2 LTG DSNT S PRESFR P0002 T02330222 =
2018-08-17 22:59 METAR KAFN 180259Z AUTO 21009G17KT 5SM VCTS -RA BR SCT008 BKN012 OVC017 23/23
                 A2996 RMK AO2 LTG DSNT S AND SW P0001 T02330228 =
2018-08-17 22:52 METAR KAFN 180252Z AUTO 21010G17KT 6SM -RA BR BKN010 OVC016 24/23 A2996 RMK AO2
                 LTG DSNT S AND SW RAE39B44 SLP143 P0002 60016 T02390228 51003 =
2018-08-17 22:41 METAR KAFN 180241Z AUTO 21009KT 7SM SCT012 BKN017 OVC080 23/23 A2995 RMK AO2 LTG
                 DSNT SW RAE39 P0001 T02330228 =
2018-08-17 21:52 METAR KAFN 180152Z AUTO 20007KT 7SM -RA SCT050 BKN100 OVC110 24/23 A2996 RMK AO2
                 LTG DSNT N AND NE AND SW TSE0053 SLP143 P0002 T02390228 =
2018-08-17 21:19 METAR KAFN 180119Z AUTO 18006KT 6SM -RA BR FEW070 SCT085 BKN100 24/23 A2997 RMK
                 AO2 LTG DSNT NW-NE TSE0053 P0001 T02390228 =
2018-08-17 20:59 METAR KAFN 180059Z AUTO 18005KT 6SM VCTS -RA BR SCT045 BKN070 BKN085 24/23 A2998
                 RMK AO2 LTG DSNT NW-E TSE53 P0000 T02390228 =
2018-08-17 20:52 METAR KAFN 180052Z AUTO 19005KT 6SM -TSRA BR FEW020 BKN048 OVC070 24/23 A2998
                 RMK AO2 LTG DSNT NW-NE SLP151 P0012 T02390233 =
2018-08-17 20:41 METAR KAFN 180041Z AUTO 19005KT 3SM -TSRA BR SCT020 BKN039 OVC070 24/23 A2998
                 RMK AO2 LTG DSNT NW-NE P0012 T02390228 =
2018-08-17 20:32 METAR KAFN 180032Z AUTO VRB03KT 1 3/4SM TSRA BR SCT018 BKN031 OVC090 23/23 A2998
                 RMK AO2 LTG DSNT NW-NE P0011 T02330228 =
2018-08-17 20:07 METAR KAFN 180007Z AUTO VRB04KT 7SM -TSRA FEW024 BKN039 OVC110 23/23 A2996 RMK
                 AO2 LTG DSNT W-NE P0001 T02330228 =
2018-08-17 19:52 METAR KAFN 172352Z AUTO 15007KT 2 1/2SM -TSRA BR SCT028 BKN040 OVC110 23/23
                 A2995 RMK AO2 VIS 1/2V5 LTG DSNT N AND NW RAB09 TSB16 SLP142 P0047 60064
                 T02330228 10289 20228 56019 =
2018-08-17 19:49 METAR KAFN 172349Z AUTO 15009KT 3SM -TSRA BR BKN028 BKN040 OVC110 23/23 A2996
                 RMK AO2 LTG DSNT N AND NW RAB09 TSB16 P0047 =
2018-08-17 19:46 METAR KAFN 172346Z AUTO VRB06KT 1 3/4SM TSRA BR BKN028 BKN040 OVC110 23/23 A2996
                 RMK AO2 LTG DSNT N AND NW RAB09 TSB16 P0047 =
2018-08-17 19:43 METAR KAFN 172343Z AUTO 13007KT 1SM +TSRA BR BKN026 BKN042 OVC090 23/23 A2996
                 RMK AO2 LTG DSNT N AND NW RAB09 TSB16 P0046 T02330228 =
2018-08-17 19:35 METAR KAFN 172335Z AUTO 3/4SM +TSRA BR FEW010 BKN043 OVC095 23/23 A2997 RMK AO2
                 LTG DSNT N AND NW RAB09 TSB16 P0034 T02330228 =
2018-08-17 19:33 METAR KAFN 172333Z AUTO 00000KT 1 1/4SM +TSRA BR FEW012 BKN043 OVC095 23/23
                 A2998 RMK AO2 LTG DSNT N AND NW RAB09 TSB16 P0022 T02330228 =
2018-08-17 19:22 METAR KAFN 172322Z AUTO 17004KT 5SM -TSRA BR SCT037 SCT070 OVC095 23/23 A2996
                 RMK AO2 LTG DSNT SW-NW RAB09 TSB16 P0001 T02330228 =
2018-08-17 18:59 METAR KAFN 172259Z AUTO VRB03KT 8SM VCTS FEW009 BKN037 OVC090 24/23 A2997 RMK
                 AO2 LTG DSNT SW-NW T02390228 =
2018-08-17 18:52 METAR KAFN 172252Z AUTO 00000KT 8SM SCT033 SCT048 BKN090 24/23 A2997 RMK AO2 LTG
                 DSNT SW-NW SLP148 T02440228 =
2018-08-17 17:52 METAR KAFN 172152Z AUTO 21003KT 10SM CLR 27/23 A2999 RMK AO2 LTG DSNT SE SLP154
                 T02670228 =
2018-08-17 16:52 METAR KAFN 172052Z AUTO VRB04KT 10SM SCT100 25/22 A3001 RMK AO2 SLP162 60017
                 T02500222 56015 =
2018-08-17 16:08 METAR KAFN 172008Z AUTO 00000KT 9SM FEW013 SCT090 26/23 A3002 RMK AO2 LTG DSNT E
                 AND SE T02560233 =
2018-08-17 15:52 METAR KAFN 171952Z AUTO 00000KT 6SM BR BKN012 BKN080 25/23 A3003 RMK AO2 LTG
                 DSNT NE-SE RAE34 TSB1857E28 SLP168 P0016 T02500233 =
2018-08-17 15:50 METAR KAFN 171950Z AUTO 00000KT 6SM BR SCT012 BKN080 24/23 A3003 RMK AO2 LTG
                 DSNT NE-SE RAE34 TSB1857E28 P0016 =

Support USWX by starting your Amazon purchase here.